sensor_id;sensor_type;location;lat;lon;timestamp;pressure;altitude;pressure_sealevel;temperature;humidity
43420;BME280;29017;51.514;-0.178;2022-07-23T00:00:20;101469.22;;;20.27;72.29
43420;BME280;29017;51.514;-0.178;2022-07-23T00:02:47;101466.16;;;20.23;72.31
43420;BME280;29017;51.514;-0.178;2022-07-23T00:05:14;101473.16;;;20.24;71.93
43420;BME280;29017;51.514;-0.178;2022-07-23T00:07:49;101471.50;;;20.23;72.67
43420;BME280;29017;51.514;-0.178;2022-07-23T00:10:16;101466.97;;;20.24;72.26
43420;BME280;29017;51.514;-0.178;2022-07-23T00:12:43;101465.13;;;20.24;71.98
43420;BME280;29017;51.514;-0.178;2022-07-23T00:15:18;101466.97;;;20.24;71.62
43420;BME280;29017;51.514;-0.178;2022-07-23T00:17:45;101471.50;;;20.23;72.16
43420;BME280;29017;51.514;-0.178;2022-07-23T00:20:12;101472.31;;;20.24;72.50
43420;BME280;29017;51.514;-0.178;2022-07-23T00:22:47;101469.66;;;20.24;71.96
43420;BME280;29017;51.514;-0.178;2022-07-23T00:25:14;101472.50;;;20.22;71.64
43420;BME280;29017;51.514;-0.178;2022-07-23T00:27:58;101473.16;;;20.24;71.92
43420;BME280;29017;51.514;-0.178;2022-07-23T00:30:26;101478.31;;;20.26;71.76
43420;BME280;29017;51.514;-0.178;2022-07-23T00:32:57;101465.97;;;20.25;71.36
43420;BME280;29017;51.514;-0.178;2022-07-23T00:35:26;101468.00;;;20.23;71.79
43420;BME280;29017;51.514;-0.178;2022-07-23T00:37:54;101471.69;;;20.22;71.57
43420;BME280;29017;51.514;-0.178;2022-07-23T00:40:21;101467.81;;;20.24;72.13
43420;BME280;29017;51.514;-0.178;2022-07-23T00:42:49;101460.59;;;20.25;71.44
43420;BME280;29017;51.514;-0.178;2022-07-23T00:45:16;101456.91;;;20.26;71.10
43420;BME280;29017;51.514;-0.178;2022-07-23T00:47:44;101461.00;;;20.22;71.27
43420;BME280;29017;51.514;-0.178;2022-07-23T00:50:14;101449.88;;;20.18;72.69
43420;BME280;29017;51.514;-0.178;2022-07-23T00:52:42;101455.41;;;20.17;71.61
43420;BME280;29017;51.514;-0.178;2022-07-23T00:55:11;101442.28;;;20.15;71.85
43420;BME280;29017;51.514;-0.178;2022-07-23T00:57:45;101446.81;;;20.15;71.80
43420;BME280;29017;51.514;-0.178;2022-07-23T01:00:14;101449.66;;;20.13;71.65
43420;BME280;29017;51.514;-0.178;2022-07-23T01:02:42;101441.03;;;20.11;71.78
43420;BME280;29017;51.514;-0.178;2022-07-23T01:05:10;101441.03;;;20.11;71.65
43420;BME280;29017;51.514;-0.178;2022-07-23T01:07:38;101437.53;;;20.11;71.66
43420;BME280;29017;51.514;-0.178;2022-07-23T01:10:20;101446.97;;;20.06;71.83
43420;BME280;29017;51.514;-0.178;2022-07-23T01:13:03;101442.66;;;20.05;71.65
43420;BME280;29017;51.514;-0.178;2022-07-23T01:15:32;101439.34;;;20.03;72.16
43420;BME280;29017;51.514;-0.178;2022-07-23T01:17:59;101440.19;;;20.04;73.02
43420;BME280;29017;51.514;-0.178;2022-07-23T01:20:26;101441.00;;;20.04;72.67
43420;BME280;29017;51.514;-0.178;2022-07-23T01:22:53;101443.50;;;20.06;72.03
43420;BME280;29017;51.514;-0.178;2022-07-23T01:25:21;101434.66;;;20.05;71.83
43420;BME280;29017;51.514;-0.178;2022-07-23T01:27:48;101441.00;;;20.04;71.88
43420;BME280;29017;51.514;-0.178;2022-07-23T01:30:15;101443.25;;;20.01;72.30
43420;BME280;29017;51.514;-0.178;2022-07-23T01:32:42;101442.22;;;19.95;72.33
43420;BME280;29017;51.514;-0.178;2022-07-23T01:35:09;101442.59;;;19.92;72.53
43420;BME280;29017;51.514;-0.178;2022-07-23T01:37:37;101447.50;;;19.89;72.38
43420;BME280;29017;51.514;-0.178;2022-07-23T01:40:05;101447.69;;;19.87;72.96
43420;BME280;29017;51.514;-0.178;2022-07-23T01:42:32;101446.03;;;19.86;72.79
43420;BME280;29017;51.514;-0.178;2022-07-23T01:45:00;101448.94;;;19.85;73.32
43420;BME280;29017;51.514;-0.178;2022-07-23T01:47:27;101447.47;;;19.82;73.11
43420;BME280;29017;51.514;-0.178;2022-07-23T01:49:54;101443.97;;;19.82;73.49
43420;BME280;29017;51.514;-0.178;2022-07-23T01:52:21;101443.16;;;19.81;73.28
43420;BME280;29017;51.514;-0.178;2022-07-23T01:54:48;101437.00;;;19.81;72.96
43420;BME280;29017;51.514;-0.178;2022-07-23T01:57:15;101438.03;;;19.80;73.13
43420;BME280;29017;51.514;-0.178;2022-07-23T01:59:42;101432.88;;;19.78;73.36
43420;BME280;29017;51.514;-0.178;2022-07-23T02:02:09;101435.34;;;19.80;75.01
43420;BME280;29017;51.514;-0.178;2022-07-23T02:04:36;101440.69;;;19.80;74.05
43420;BME280;29017;51.514;-0.178;2022-07-23T02:07:04;101452.59;;;19.77;73.88
43420;BME280;29017;51.514;-0.178;2022-07-23T02:09:31;101437.16;;;19.73;73.56
43420;BME280;29017;51.514;-0.178;2022-07-23T02:11:58;101436.13;;;19.74;73.89
43420;BME280;29017;51.514;-0.178;2022-07-23T02:14:25;101440.84;;;19.72;73.90
43420;BME280;29017;51.514;-0.178;2022-07-23T02:16:53;101432.63;;;19.73;74.21
43420;BME280;29017;51.514;-0.178;2022-07-23T02:19:20;101425.03;;;19.70;74.14
43420;BME280;29017;51.514;-0.178;2022-07-23T02:21:47;101436.72;;;19.69;74.35
43420;BME280;29017;51.514;-0.178;2022-07-23T02:24:14;101446.59;;;19.69;74.02
43420;BME280;29017;51.514;-0.178;2022-07-23T02:26:41;101437.75;;;19.68;74.04
43420;BME280;29017;51.514;-0.178;2022-07-23T02:29:08;101444.75;;;19.69;74.19
43420;BME280;29017;51.514;-0.178;2022-07-23T02:31:35;101445.75;;;19.68;74.22
43420;BME280;29017;51.514;-0.178;2022-07-23T02:34:02;101444.56;;;19.71;76.13
43420;BME280;29017;51.514;-0.178;2022-07-23T02:36:30;101441.25;;;19.69;74.83
43420;BME280;29017;51.514;-0.178;2022-07-23T02:38:57;101451.28;;;19.67;74.97
43420;BME280;29017;51.514;-0.178;2022-07-23T02:41:24;101444.50;;;19.64;74.90
43420;BME280;29017;51.514;-0.178;2022-07-23T02:43:51;101449.03;;;19.63;74.58
43420;BME280;29017;51.514;-0.178;2022-07-23T02:46:18;101442.03;;;19.62;74.66
43420;BME280;29017;51.514;-0.178;2022-07-23T02:48:45;101441.00;;;19.63;74.71
43420;BME280;29017;51.514;-0.178;2022-07-23T02:51:12;101438.16;;;19.65;74.86
43420;BME280;29017;51.514;-0.178;2022-07-23T02:53:40;101437.31;;;19.64;74.57
43420;BME280;29017;51.514;-0.178;2022-07-23T02:56:17;101434.84;;;19.63;74.61
43420;BME280;29017;51.514;-0.178;2022-07-23T02:58:43;101440.19;;;19.63;74.89
43420;BME280;29017;51.514;-0.178;2022-07-23T03:01:10;101442.44;;;19.59;74.82
43420;BME280;29017;51.514;-0.178;2022-07-23T03:03:40;101444.28;;;19.59;75.00
43420;BME280;29017;51.514;-0.178;2022-07-23T03:06:14;101443.63;;;19.57;74.89
43420;BME280;29017;51.514;-0.178;2022-07-23T03:08:41;101439.13;;;19.57;75.05
43420;BME280;29017;51.514;-0.178;2022-07-23T03:11:08;101440.59;;;19.60;74.85
43420;BME280;29017;51.514;-0.178;2022-07-23T03:13:38;101443.44;;;19.58;74.55
43420;BME280;29017;51.514;-0.178;2022-07-23T03:16:05;101442.81;;;19.56;74.85
43420;BME280;29017;51.514;-0.178;2022-07-23T03:18:33;101444.47;;;19.57;75.03
43420;BME280;29017;51.514;-0.178;2022-07-23T03:21:06;101447.13;;;19.57;74.81
43420;BME280;29017;51.514;-0.178;2022-07-23T03:23:33;101445.94;;;19.60;75.90
43420;BME280;29017;51.514;-0.178;2022-07-23T03:26:01;101449.22;;;19.62;75.52
43420;BME280;29017;51.514;-0.178;2022-07-23T03:28:27;101454.19;;;19.65;75.26
43420;BME280;29017;51.514;-0.178;2022-07-23T03:30:54;101459.53;;;19.65;74.83
43420;BME280;29017;51.514;-0.178;2022-07-23T03:33:21;101449.66;;;19.66;74.85
43420;BME280;29017;51.514;-0.178;2022-07-23T03:35:48;101446.78;;;19.67;74.57
43420;BME280;29017;51.514;-0.178;2022-07-23T03:38:16;101434.06;;;19.69;74.40
43420;BME280;29017;51.514;-0.178;2022-07-23T03:40:43;101441.88;;;19.71;74.71
43420;BME280;29017;51.514;-0.178;2022-07-23T03:43:10;101424.81;;;19.72;74.56
43420;BME280;29017;51.514;-0.178;2022-07-23T03:45:37;101429.78;;;19.75;74.20
43420;BME280;29017;51.514;-0.178;2022-07-23T03:48:04;101425.03;;;19.77;74.54
43420;BME280;29017;51.514;-0.178;2022-07-23T03:50:31;101426.69;;;19.78;74.16
43420;BME280;29017;51.514;-0.178;2022-07-23T03:52:58;101427.34;;;19.80;74.43
43420;BME280;29017;51.514;-0.178;2022-07-23T03:55:26;101421.16;;;19.79;74.16
43420;BME280;29017;51.514;-0.178;2022-07-23T03:57:52;101420.16;;;19.80;74.89
43420;BME280;29017;51.514;-0.178;2022-07-23T04:00:19;101425.28;;;19.82;74.63
43420;BME280;29017;51.514;-0.178;2022-07-23T04:02:46;101419.75;;;19.83;74.27
43420;BME280;29017;51.514;-0.178;2022-07-23T04:05:13;101421.41;;;19.84;74.10
43420;BME280;29017;51.514;-0.178;2022-07-23T04:07:40;101422.00;;;19.86;74.40
43420;BME280;29017;51.514;-0.178;2022-07-23T04:10:07;101426.34;;;19.87;74.34
43420;BME280;29017;51.514;-0.178;2022-07-23T04:12:34;101419.13;;;19.88;74.40
43420;BME280;29017;51.514;-0.178;2022-07-23T04:15:07;101427.97;;;19.88;74.65
43420;BME280;29017;51.514;-0.178;2022-07-23T04:17:40;101426.97;;;19.89;75.04
43420;BME280;29017;51.514;-0.178;2022-07-23T04:20:08;101426.13;;;19.89;74.81
43420;BME280;29017;51.514;-0.178;2022-07-23T04:22:35;101440.94;;;19.91;75.13
43420;BME280;29017;51.514;-0.178;2022-07-23T04:25:03;101430.47;;;19.90;74.88
43420;BME280;29017;51.514;-0.178;2022-07-23T04:27:30;101438.25;;;19.91;75.24
43420;BME280;29017;51.514;-0.178;2022-07-23T04:29:59;101433.75;;;19.92;75.34
43420;BME280;29017;51.514;-0.178;2022-07-23T04:32:26;101427.19;;;19.94;75.66
43420;BME280;29017;51.514;-0.178;2022-07-23T04:34:53;101436.44;;;19.98;76.00
43420;BME280;29017;51.514;-0.178;2022-07-23T04:37:20;101434.41;;;20.00;75.69
43420;BME280;29017;51.514;-0.178;2022-07-23T04:39:47;101429.91;;;20.01;75.53
43420;BME280;29017;51.514;-0.178;2022-07-23T04:42:14;101431.53;;;20.02;75.81
43420;BME280;29017;51.514;-0.178;2022-07-23T04:44:41;101422.69;;;20.01;75.82
43420;BME280;29017;51.514;-0.178;2022-07-23T04:47:07;101433.59;;;20.00;75.83
43420;BME280;29017;51.514;-0.178;2022-07-23T04:49:34;101428.25;;;20.00;75.97
43420;BME280;29017;51.514;-0.178;2022-07-23T04:52:02;101436.03;;;20.01;77.29
43420;BME280;29017;51.514;-0.178;2022-07-23T04:54:29;101431.53;;;20.02;76.80
43420;BME280;29017;51.514;-0.178;2022-07-23T04:56:55;101430.69;;;20.01;76.49
43420;BME280;29017;51.514;-0.178;2022-07-23T04:59:22;101428.03;;;20.01;76.09
43420;BME280;29017;51.514;-0.178;2022-07-23T05:01:49;101427.41;;;19.99;75.98
43420;BME280;29017;51.514;-0.178;2022-07-23T05:04:16;101432.56;;;20.01;76.07
43420;BME280;29017;51.514;-0.178;2022-07-23T05:06:43;101434.00;;;20.03;76.00
43420;BME280;29017;51.514;-0.178;2022-07-23T05:09:10;101434.84;;;20.04;76.15
43420;BME280;29017;51.514;-0.178;2022-07-23T05:11:37;101446.16;;;20.06;76.19
43420;BME280;29017;51.514;-0.178;2022-07-23T05:14:03;101450.47;;;20.07;76.25
43420;BME280;29017;51.514;-0.178;2022-07-23T05:16:30;101448.63;;;20.07;76.24
43420;BME280;29017;51.514;-0.178;2022-07-23T05:18:57;101452.72;;;20.03;76.23
43420;BME280;29017;51.514;-0.178;2022-07-23T05:21:25;101454.75;;;20.01;76.36
43420;BME280;29017;51.514;-0.178;2022-07-23T05:23:54;101456.63;;;20.01;76.30
43420;BME280;29017;51.514;-0.178;2022-07-23T05:26:21;101453.31;;;19.99;76.26
43420;BME280;29017;51.514;-0.178;2022-07-23T05:28:48;101461.13;;;20.00;76.32
43420;BME280;29017;51.514;-0.178;2022-07-23T05:31:15;101456.81;;;19.99;76.60
43420;BME280;29017;51.514;-0.178;2022-07-23T05:33:52;101453.31;;;19.99;76.44
43420;BME280;29017;51.514;-0.178;2022-07-23T05:36:20;101453.72;;;19.96;76.31
43420;BME280;29017;51.514;-0.178;2022-07-23T05:38:47;101454.75;;;19.95;76.66
43420;BME280;29017;51.514;-0.178;2022-07-23T05:41:14;101447.94;;;19.92;76.50
43420;BME280;29017;51.514;-0.178;2022-07-23T05:43:48;101451.00;;;19.89;77.24
43420;BME280;29017;51.514;-0.178;2022-07-23T05:46:18;101445.84;;;19.88;77.06
43420;BME280;29017;51.514;-0.178;2022-07-23T05:48:45;101451.19;;;19.88;76.82
43420;BME280;29017;51.514;-0.178;2022-07-23T05:51:20;101452.22;;;19.87;77.26
43420;BME280;29017;51.514;-0.178;2022-07-23T05:53:49;101456.53;;;19.88;77.09
43420;BME280;29017;51.514;-0.178;2022-07-23T05:56:16;101458.38;;;19.87;76.44
43420;BME280;29017;51.514;-0.178;2022-07-23T05:58:44;101452.84;;;19.89;76.63
43420;BME280;29017;51.514;-0.178;2022-07-23T06:01:11;101450.81;;;19.91;76.85
43420;BME280;29017;51.514;-0.178;2022-07-23T06:03:38;101447.09;;;19.92;77.29
43420;BME280;29017;51.514;-0.178;2022-07-23T06:06:13;101445.47;;;19.91;76.91
43420;BME280;29017;51.514;-0.178;2022-07-23T06:08:40;101447.09;;;19.92;76.98
43420;BME280;29017;51.514;-0.178;2022-07-23T06:11:07;101444.00;;;19.88;77.29
43420;BME280;29017;51.514;-0.178;2022-07-23T06:13:34;101443.00;;;19.89;77.36
43420;BME280;29017;51.514;-0.178;2022-07-23T06:16:02;101440.31;;;19.89;77.13
43420;BME280;29017;51.514;-0.178;2022-07-23T06:18:29;101440.78;;;19.99;77.03
43420;BME280;29017;51.514;-0.178;2022-07-23T06:20:55;101443.72;;;20.11;77.46
43420;BME280;29017;51.514;-0.178;2022-07-23T06:23:26;101448.03;;;20.19;76.56
43420;BME280;29017;51.514;-0.178;2022-07-23T06:25:53;101439.84;;;20.27;75.40
43420;BME280;29017;51.514;-0.178;2022-07-23T06:28:20;101449.31;;;20.29;75.55
43420;BME280;29017;51.514;-0.178;2022-07-23T06:30:46;101448.50;;;20.29;75.22
43420;BME280;29017;51.514;-0.178;2022-07-23T06:33:13;101446.00;;;20.27;75.34
43420;BME280;29017;51.514;-0.178;2022-07-23T06:35:40;101455.47;;;20.23;75.24
43420;BME280;29017;51.514;-0.178;2022-07-23T06:38:07;101456.69;;;20.21;75.39
43420;BME280;29017;51.514;-0.178;2022-07-23T06:40:35;101458.09;;;20.17;76.23
43420;BME280;29017;51.514;-0.178;2022-07-23T06:43:02;101452.56;;;20.18;75.76
43420;BME280;29017;51.514;-0.178;2022-07-23T06:45:29;101460.56;;;20.18;75.71
43420;BME280;29017;51.514;-0.178;2022-07-23T06:47:56;101463.25;;;20.18;75.17
43420;BME280;29017;51.514;-0.178;2022-07-23T06:50:23;101468.19;;;20.15;75.23
43420;BME280;29017;51.514;-0.178;2022-07-23T06:52:50;101464.47;;;20.09;75.19
43420;BME280;29017;51.514;-0.178;2022-07-23T06:55:23;101460.53;;;20.05;75.79
43420;BME280;29017;51.514;-0.178;2022-07-23T06:57:50;101464.22;;;20.04;76.92
43420;BME280;29017;51.514;-0.178;2022-07-23T07:00:17;101470.22;;;20.06;77.02
43420;BME280;29017;51.514;-0.178;2022-07-23T07:02:44;101471.47;;;20.10;76.16
43420;BME280;29017;51.514;-0.178;2022-07-23T07:05:11;101464.25;;;20.11;76.10
43420;BME280;29017;51.514;-0.178;2022-07-23T07:07:38;101469.19;;;20.14;75.93
43420;BME280;29017;51.514;-0.178;2022-07-23T07:10:05;101469.84;;;20.16;75.65
43420;BME280;29017;51.514;-0.178;2022-07-23T07:12:39;101471.28;;;20.18;75.49
43420;BME280;29017;51.514;-0.178;2022-07-23T07:15:06;101484.25;;;20.21;76.18
43420;BME280;29017;51.514;-0.178;2022-07-23T07:17:33;101470.28;;;20.26;75.84
43420;BME280;29017;51.514;-0.178;2022-07-23T07:20:00;101465.34;;;20.29;74.87
43420;BME280;29017;51.514;-0.178;2022-07-23T07:22:26;101464.59;;;20.35;75.07
43420;BME280;29017;51.514;-0.178;2022-07-23T07:24:53;101467.25;;;20.42;74.91
43420;BME280;29017;51.514;-0.178;2022-07-23T07:27:20;101470.38;;;20.45;74.31
43420;BME280;29017;51.514;-0.178;2022-07-23T07:29:47;101473.47;;;20.49;73.84
43420;BME280;29017;51.514;-0.178;2022-07-23T07:32:14;101480.88;;;20.54;73.82
43420;BME280;29017;51.514;-0.178;2022-07-23T07:35:01;101477.00;;;20.56;73.63
43420;BME280;29017;51.514;-0.178;2022-07-23T07:37:28;101472.88;;;20.60;73.57
43420;BME280;29017;51.514;-0.178;2022-07-23T07:39:55;101472.25;;;20.65;73.58
43420;BME280;29017;51.514;-0.178;2022-07-23T07:42:22;101474.53;;;20.68;73.13
43420;BME280;29017;51.514;-0.178;2022-07-23T07:44:49;101482.56;;;20.74;72.80
43420;BME280;29017;51.514;-0.178;2022-07-23T07:47:15;101485.06;;;20.82;72.28
43420;BME280;29017;51.514;-0.178;2022-07-23T07:49:42;101480.50;;;20.83;72.48
43420;BME280;29017;51.514;-0.178;2022-07-23T07:52:10;101472.69;;;20.88;73.55
43420;BME280;29017;51.514;-0.178;2022-07-23T07:54:37;101469.66;;;20.98;71.56
43420;BME280;29017;51.514;-0.178;2022-07-23T07:57:04;101471.09;;;21.07;71.14
43420;BME280;29017;51.514;-0.178;2022-07-23T07:59:34;101461.59;;;21.11;70.97
43420;BME280;29017;51.514;-0.178;2022-07-23T08:02:00;101471.72;;;21.15;70.96
43420;BME280;29017;51.514;-0.178;2022-07-23T08:04:27;101468.41;;;21.20;70.58
43420;BME280;29017;51.514;-0.178;2022-07-23T08:06:54;101473.97;;;21.25;70.39
43420;BME280;29017;51.514;-0.178;2022-07-23T08:09:21;101470.91;;;21.28;70.29
43420;BME280;29017;51.514;-0.178;2022-07-23T08:11:48;101458.50;;;21.33;69.99
43420;BME280;29017;51.514;-0.178;2022-07-23T08:14:18;101462.66;;;21.36;70.67
43420;BME280;29017;51.514;-0.178;2022-07-23T08:16:45;101472.53;;;21.36;68.57
43420;BME280;29017;51.514;-0.178;2022-07-23T08:19:32;101479.94;;;21.40;68.47
43420;BME280;29017;51.514;-0.178;2022-07-23T08:21:58;101481.41;;;21.43;67.85
43420;BME280;29017;51.514;-0.178;2022-07-23T08:24:26;101478.50;;;21.44;67.75
43420;BME280;29017;51.514;-0.178;2022-07-23T08:26:53;101473.97;;;21.45;67.37
43420;BME280;29017;51.514;-0.178;2022-07-23T08:29:19;101478.09;;;21.47;67.32
43420;BME280;29017;51.514;-0.178;2022-07-23T08:31:52;101473.75;;;21.46;66.17
43420;BME280;29017;51.514;-0.178;2022-07-23T08:34:19;101475.19;;;21.49;65.70
43420;BME280;29017;51.514;-0.178;2022-07-23T08:36:46;101463.25;;;21.51;65.70
43420;BME280;29017;51.514;-0.178;2022-07-23T08:39:13;101462.81;;;21.54;64.99
43420;BME280;29017;51.514;-0.178;2022-07-23T08:41:40;101465.50;;;21.54;64.77
43420;BME280;29017;51.514;-0.178;2022-07-23T08:44:08;101459.31;;;21.54;64.59
43420;BME280;29017;51.514;-0.178;2022-07-23T08:46:36;101463.25;;;21.58;64.93
43420;BME280;29017;51.514;-0.178;2022-07-23T08:49:09;101466.13;;;21.63;65.36
43420;BME280;29017;51.514;-0.178;2022-07-23T08:51:36;101471.88;;;21.66;65.49
43420;BME280;29017;51.514;-0.178;2022-07-23T08:54:03;101463.00;;;21.72;65.28
43420;BME280;29017;51.514;-0.178;2022-07-23T08:56:31;101469.13;;;21.80;65.04
43420;BME280;29017;51.514;-0.178;2022-07-23T08:58:58;101475.75;;;21.84;62.32
43420;BME280;29017;51.514;-0.178;2022-07-23T09:01:25;101468.50;;;21.91;62.93
43420;BME280;29017;51.514;-0.178;2022-07-23T09:03:58;101468.91;;;21.94;61.33
43420;BME280;29017;51.514;-0.178;2022-07-23T09:06:27;101469.34;;;21.98;61.04
43420;BME280;29017;51.514;-0.178;2022-07-23T09:08:54;101473.66;;;21.99;60.38
43420;BME280;29017;51.514;-0.178;2022-07-23T09:11:21;101474.88;;;22.03;61.24
43420;BME280;29017;51.514;-0.178;2022-07-23T09:13:53;101467.84;;;22.08;60.70
43420;BME280;29017;51.514;-0.178;2022-07-23T09:16:26;101471.31;;;22.15;61.03
43420;BME280;29017;51.514;-0.178;2022-07-23T09:18:55;101467.59;;;22.23;60.89
43420;BME280;29017;51.514;-0.178;2022-07-23T09:21:25;101466.66;;;22.42;61.27
43420;BME280;29017;51.514;-0.178;2022-07-23T09:24:19;101476.44;;;22.61;59.41
43420;BME280;29017;51.514;-0.178;2022-07-23T09:26:47;101469.97;;;22.76;58.68
43420;BME280;29017;51.514;-0.178;2022-07-23T09:29:25;101463.91;;;22.87;58.23
43420;BME280;29017;51.514;-0.178;2022-07-23T09:32:13;101472.75;;;22.94;56.31
43420;BME280;29017;51.514;-0.178;2022-07-23T09:34:49;101471.91;;;22.93;54.97
43420;BME280;29017;51.514;-0.178;2022-07-23T09:37:18;101477.66;;;22.97;54.90
43420;BME280;29017;51.514;-0.178;2022-07-23T09:39:47;101477.81;;;23.02;56.06
43420;BME280;29017;51.514;-0.178;2022-07-23T09:42:16;101479.66;;;23.08;55.12
43420;BME280;29017;51.514;-0.178;2022-07-23T09:44:46;101485.81;;;23.15;55.59
43420;BME280;29017;51.514;-0.178;2022-07-23T09:47:13;101488.66;;;23.20;54.65
43420;BME280;29017;51.514;-0.178;2022-07-23T09:49:40;101487.75;;;23.26;54.87
43420;BME280;29017;51.514;-0.178;2022-07-23T09:52:07;101488.16;;;23.30;55.41
43420;BME280;29017;51.514;-0.178;2022-07-23T09:54:38;101488.72;;;23.32;54.36
43420;BME280;29017;51.514;-0.178;2022-07-23T09:57:11;101486.81;;;23.39;53.52
43420;BME280;29017;51.514;-0.178;2022-07-23T09:59:44;101487.19;;;23.42;54.79
43420;BME280;29017;51.514;-0.178;2022-07-23T10:02:13;101487.38;;;23.48;54.98
43420;BME280;29017;51.514;-0.178;2022-07-23T10:04:42;101481.94;;;23.54;52.90
43420;BME280;29017;51.514;-0.178;2022-07-23T10:07:09;101477.09;;;23.63;52.09
43420;BME280;29017;51.514;-0.178;2022-07-23T10:09:41;101464.63;;;23.68;50.93
43420;BME280;29017;51.514;-0.178;2022-07-23T10:12:13;101474.97;;;23.71;50.31
43420;BME280;29017;51.514;-0.178;2022-07-23T10:15:05;101469.88;;;23.81;51.35
43420;BME280;29017;51.514;-0.178;2022-07-23T10:17:39;101473.28;;;23.88;50.96
43420;BME280;29017;51.514;-0.178;2022-07-23T10:20:06;101478.00;;;23.93;50.04
43420;BME280;29017;51.514;-0.178;2022-07-23T10:22:37;101471.72;;;23.99;47.14
43420;BME280;29017;51.514;-0.178;2022-07-23T10:25:33;101478.69;;;24.07;46.61
43420;BME280;29017;51.514;-0.178;2022-07-23T10:28:24;101474.84;;;24.14;46.87
43420;BME280;29017;51.514;-0.178;2022-07-23T10:34:11;101471.44;;;24.25;46.62
43420;BME280;29017;51.514;-0.178;2022-07-23T10:36:54;101468.41;;;24.34;46.91
43420;BME280;29017;51.514;-0.178;2022-07-23T10:39:26;101470.53;;;24.32;45.48
43420;BME280;29017;51.514;-0.178;2022-07-23T10:42:12;101466.78;;;24.33;43.75
43420;BME280;29017;51.514;-0.178;2022-07-23T10:44:42;101479.91;;;24.41;44.39
43420;BME280;29017;51.514;-0.178;2022-07-23T10:47:10;101456.53;;;24.41;44.97
43420;BME280;29017;51.514;-0.178;2022-07-23T10:49:38;101460.41;;;24.45;45.63
43420;BME280;29017;51.514;-0.178;2022-07-23T10:54:40;101462.09;;;24.58;45.19
43420;BME280;29017;51.514;-0.178;2022-07-23T10:57:08;101457.28;;;24.60;43.02
43420;BME280;29017;51.514;-0.178;2022-07-23T11:02:42;101459.06;;;24.66;41.68
43420;BME280;29017;51.514;-0.178;2022-07-23T11:05:20;101457.19;;;24.66;43.35
43420;BME280;29017;51.514;-0.178;2022-07-23T11:13:31;101452.41;;;24.68;44.21
43420;BME280;29017;51.514;-0.178;2022-07-23T11:24:00;101455.78;;;24.76;45.13
43420;BME280;29017;51.514;-0.178;2022-07-23T11:32:00;101451.13;;;24.83;43.57
43420;BME280;29017;51.514;-0.178;2022-07-23T11:34:31;101448.19;;;24.84;42.60
43420;BME280;29017;51.514;-0.178;2022-07-23T11:36:59;101443.88;;;24.83;41.73
43420;BME280;29017;51.514;-0.178;2022-07-23T11:39:28;101436.63;;;24.84;42.66
43420;BME280;29017;51.514;-0.178;2022-07-23T11:41:56;101436.84;;;24.82;43.31
43420;BME280;29017;51.514;-0.178;2022-07-23T11:44:28;101443.50;;;24.80;42.90
43420;BME280;29017;51.514;-0.178;2022-07-23T11:49:27;101434.97;;;24.83;43.23
43420;BME280;29017;51.514;-0.178;2022-07-23T11:52:12;101434.09;;;24.89;43.29
43420;BME280;29017;51.514;-0.178;2022-07-23T11:54:54;101426.72;;;24.96;43.62
43420;BME280;29017;51.514;-0.178;2022-07-23T11:57:27;101434.78;;;24.96;42.20
43420;BME280;29017;51.514;-0.178;2022-07-23T12:00:02;101436.44;;;24.97;42.06
43420;BME280;29017;51.514;-0.178;2022-07-23T12:02:30;101431.28;;;24.95;40.96
43420;BME280;29017;51.514;-0.178;2022-07-23T12:04:57;101428.13;;;24.98;40.62
43420;BME280;29017;51.514;-0.178;2022-07-23T12:09:52;101421.09;;;25.09;39.47
43420;BME280;29017;51.514;-0.178;2022-07-23T12:12:19;101413.81;;;25.09;40.03
43420;BME280;29017;51.514;-0.178;2022-07-23T12:14:56;101416.63;;;25.14;40.22
43420;BME280;29017;51.514;-0.178;2022-07-23T12:17:33;101415.47;;;25.22;38.59
43420;BME280;29017;51.514;-0.178;2022-07-23T12:20:01;101422.84;;;25.27;38.78
43420;BME280;29017;51.514;-0.178;2022-07-23T12:22:36;101422.38;;;25.30;39.41
43420;BME280;29017;51.514;-0.178;2022-07-23T12:25:18;101419.78;;;25.35;39.53
43420;BME280;29017;51.514;-0.178;2022-07-23T12:27:58;101411.03;;;25.39;38.62
43420;BME280;29017;51.514;-0.178;2022-07-23T12:30:28;101410.75;;;25.41;39.76
43420;BME280;29017;51.514;-0.178;2022-07-23T12:33:00;101414.38;;;25.46;39.86
43420;BME280;29017;51.514;-0.178;2022-07-23T12:35:33;101418.84;;;25.52;38.90
43420;BME280;29017;51.514;-0.178;2022-07-23T12:38:05;101416.28;;;25.58;38.54
43420;BME280;29017;51.514;-0.178;2022-07-23T12:40:36;101408.44;;;25.56;38.21
43420;BME280;29017;51.514;-0.178;2022-07-23T12:43:06;101408.53;;;25.61;39.42
43420;BME280;29017;51.514;-0.178;2022-07-23T12:45:45;101414.97;;;25.72;39.14
43420;BME280;29017;51.514;-0.178;2022-07-23T12:48:35;101406.25;;;25.81;40.77
43420;BME280;29017;51.514;-0.178;2022-07-23T12:51:08;101410.09;;;25.85;39.37
43420;BME280;29017;51.514;-0.178;2022-07-23T12:53:54;101413.16;;;25.89;39.68
43420;BME280;29017;51.514;-0.178;2022-07-23T12:56:27;101398.84;;;25.88;39.20
43420;BME280;29017;51.514;-0.178;2022-07-23T12:59:04;101389.22;;;25.92;38.49
43420;BME280;29017;51.514;-0.178;2022-07-23T13:01:45;101392.16;;;25.91;39.18
43420;BME280;29017;51.514;-0.178;2022-07-23T13:04:22;101387.84;;;25.90;39.52
43420;BME280;29017;51.514;-0.178;2022-07-23T13:06:51;101388.75;;;25.95;40.03
43420;BME280;29017;51.514;-0.178;2022-07-23T13:09:26;101381.91;;;26.05;39.88
43420;BME280;29017;51.514;-0.178;2022-07-23T13:12:14;101373.53;;;26.06;40.69
43420;BME280;29017;51.514;-0.178;2022-07-23T13:14:41;101369.56;;;26.09;40.59
43420;BME280;29017;51.514;-0.178;2022-07-23T13:17:08;101358.03;;;26.13;40.28
43420;BME280;29017;51.514;-0.178;2022-07-23T13:19:35;101357.31;;;26.18;41.42
43420;BME280;29017;51.514;-0.178;2022-07-23T13:22:02;101355.19;;;26.20;40.80
43420;BME280;29017;51.514;-0.178;2022-07-23T13:24:35;101355.19;;;26.20;40.39